createdAt,value
2023-03-04T00:02:23.399Z,94.68
2023-03-04T00:04:50.267Z,93.70
2023-03-04T00:07:18.854Z,92.93
2023-03-04T00:09:46.093Z,94.90
2023-03-04T00:12:13.236Z,95.89
2023-03-04T00:14:40.305Z,95.35
2023-03-04T00:17:07.138Z,95.99
2023-03-04T00:19:35.007Z,95.42
2023-03-04T00:22:02.185Z,96.10
2023-03-04T00:24:28.812Z,95.99
2023-03-04T00:26:55.407Z,95.74
2023-03-04T00:29:22.215Z,95.11
2023-03-04T00:31:48.922Z,95.56
2023-03-04T00:34:15.527Z,96.03
2023-03-04T00:36:44.659Z,96.02
2023-03-04T00:39:12.441Z,95.15
2023-03-04T00:41:39.668Z,94.59
2023-03-04T00:44:06.589Z,94.63
2023-03-04T00:46:33.458Z,95.32
2023-03-04T00:49:00.094Z,94.86
2023-03-04T00:51:26.808Z,94.86
2023-03-04T00:53:53.480Z,94.68
2023-03-04T00:56:20.089Z,95.22
2023-03-04T00:58:46.817Z,94.85
2023-03-04T01:01:13.419Z,95.43
2023-03-04T01:03:41.500Z,95.76
2023-03-04T01:06:08.429Z,94.77
2023-03-04T01:08:35.023Z,94.29
2023-03-04T01:11:01.613Z,94.51
2023-03-04T01:13:28.255Z,95.20
2023-03-04T01:15:55.957Z,95.44
2023-03-04T01:18:22.596Z,95.22
2023-03-04T01:20:49.200Z,94.73
2023-03-04T01:23:15.902Z,94.96
2023-03-04T01:25:42.827Z,94.85
2023-03-04T01:28:09.481Z,95.97
2023-03-04T01:30:36.104Z,96.34
2023-03-04T01:33:02.775Z,95.63
2023-03-04T01:35:29.433Z,96.28
2023-03-04T01:37:56.943Z,96.24
2023-03-04T01:40:23.922Z,96.82
2023-03-04T01:42:51.021Z,96.50
2023-03-04T01:45:19.948Z,95.93
2023-03-04T01:47:49.165Z,96.90
2023-03-04T01:50:31.543Z,96.51
2023-03-04T01:52:58.157Z,96.40
2023-03-04T01:55:25.127Z,96.78
2023-03-04T01:57:53.053Z,96.91
2023-03-04T02:00:27.016Z,96.64
2023-03-04T02:03:11.355Z,96.37
2023-03-04T02:05:41.273Z,97.08
2023-03-04T02:08:09.273Z,97.17
2023-03-04T02:10:37.245Z,96.71
2023-03-04T02:13:06.249Z,96.64
2023-03-04T02:15:33.549Z,96.46
2023-03-04T02:18:01.194Z,96.67
2023-03-04T02:21:08.213Z,96.08
2023-03-04T02:24:10.406Z,96.01
2023-03-04T02:26:39.786Z,95.79
2023-03-04T02:29:06.451Z,95.43
2023-03-04T02:31:39.888Z,95.74
2023-03-04T02:34:12.601Z,95.72
2023-03-04T02:36:40.349Z,95.46
2023-03-04T02:39:13.090Z,95.40
2023-03-04T02:41:40.035Z,95.34
2023-03-04T02:44:20.964Z,94.46
2023-03-04T02:46:48.193Z,94.93
2023-03-04T02:49:15.099Z,95.42
2023-03-04T02:51:41.687Z,94.92
2023-03-04T02:54:16.057Z,95.92
2023-03-04T02:56:51.837Z,95.01
2023-03-04T02:59:19.770Z,95.18
2023-03-04T03:01:46.543Z,95.47
2023-03-04T03:04:14.128Z,95.33
2023-03-04T03:06:41.994Z,95.15
2023-03-04T03:09:09.400Z,95.86
2023-03-04T03:11:36.530Z,95.17
2023-03-04T03:14:04.108Z,95.28
2023-03-04T03:16:31.140Z,95.68
2023-03-04T03:18:57.889Z,97.30
2023-03-04T03:21:24.719Z,96.17
2023-03-04T03:23:51.321Z,96.29
2023-03-04T03:26:19.841Z,95.36
2023-03-04T03:28:46.571Z,96.34
2023-03-04T03:31:13.540Z,96.33
2023-03-04T03:33:40.300Z,96.08
2023-03-04T03:36:08.215Z,96.36
2023-03-04T03:38:35.295Z,96.11
2023-03-04T03:41:02.010Z,95.80
2023-03-04T03:43:28.792Z,95.96
2023-03-04T03:45:55.399Z,96.26
2023-03-04T03:48:22.088Z,96.33
2023-03-04T03:50:48.675Z,96.39
2023-03-04T03:53:15.282Z,95.93
2023-03-04T03:55:41.952Z,95.51
2023-03-04T03:58:08.550Z,95.50
2023-03-04T04:00:35.130Z,96.14
2023-03-04T04:03:02.100Z,95.82
2023-03-04T04:05:28.730Z,96.03
2023-03-04T04:07:56.059Z,96.74
2023-03-04T04:10:22.650Z,96.29
2023-03-04T04:12:49.312Z,94.85
2023-03-04T04:15:15.888Z,94.60
2023-03-04T04:17:42.548Z,94.78
2023-03-04T04:20:09.729Z,95.02
2023-03-04T04:22:36.323Z,94.88
2023-03-04T04:25:03.072Z,94.88
2023-03-04T04:27:29.734Z,94.67
2023-03-04T04:29:56.284Z,94.34
2023-03-04T04:32:22.926Z,93.93
2023-03-04T04:34:49.630Z,93.39
2023-03-04T04:37:16.239Z,93.21
2023-03-04T04:39:42.824Z,93.34
2023-03-04T04:42:11.258Z,93.60
2023-03-04T04:44:39.098Z,93.81
2023-03-04T04:47:07.261Z,93.76
2023-03-04T04:49:34.292Z,94.66
2023-03-04T04:52:00.938Z,94.25
2023-03-04T04:54:27.589Z,93.83
2023-03-04T04:56:54.132Z,93.67
2023-03-04T04:59:20.768Z,93.96
2023-03-04T05:01:47.673Z,93.97
2023-03-04T05:04:14.312Z,93.53
2023-03-04T05:06:41.275Z,93.26
2023-03-04T05:09:07.993Z,93.43
2023-03-04T05:11:34.768Z,93.58
2023-03-04T05:14:01.426Z,93.17
2023-03-04T05:16:27.968Z,92.66
2023-03-04T05:18:54.563Z,92.62
2023-03-04T05:21:21.323Z,92.63
2023-03-04T05:23:47.955Z,91.73
2023-03-04T05:26:17.243Z,91.68
2023-03-04T05:28:44.640Z,92.14
2023-03-04T05:31:11.924Z,92.50
2023-03-04T05:33:38.580Z,91.77
2023-03-04T05:36:06.644Z,91.60
2023-03-04T05:38:33.333Z,91.41
2023-03-04T05:41:03.523Z,91.63
2023-03-04T05:43:31.629Z,91.95
2023-03-04T05:45:58.213Z,91.94
2023-03-04T05:48:24.864Z,91.88
2023-03-04T05:51:00.452Z,92.27
2023-03-04T05:53:28.552Z,91.80
2023-03-04T05:55:55.882Z,92.11
2023-03-04T05:58:23.027Z,91.72
2023-03-04T06:00:49.636Z,91.93
2023-03-04T06:03:18.603Z,91.74
2023-03-04T06:05:45.297Z,92.29
2023-03-04T06:08:12.370Z,91.45
2023-03-04T06:10:40.935Z,91.81
2023-03-04T06:13:08.387Z,92.20
2023-03-04T06:15:35.044Z,91.81
2023-03-04T06:18:02.176Z,91.31
2023-03-04T06:20:28.847Z,91.38
2023-03-04T06:22:56.605Z,91.68
2023-03-04T06:25:23.313Z,91.46
2023-03-04T06:27:50.889Z,91.34
2023-03-04T06:30:18.549Z,91.50
2023-03-04T06:32:46.130Z,91.23
2023-03-04T06:35:14.533Z,91.26
2023-03-04T06:37:41.232Z,91.21
2023-03-04T06:40:09.300Z,90.67
2023-03-04T06:42:36.568Z,89.17
2023-03-04T06:45:04.426Z,89.10
2023-03-04T06:47:31.002Z,88.75
2023-03-04T06:49:57.589Z,88.75
2023-03-04T06:52:24.263Z,89.00
2023-03-04T06:54:50.876Z,88.99
2023-03-04T06:57:17.549Z,88.74
2023-03-04T06:59:44.151Z,89.02
2023-03-04T07:02:21.458Z,89.03
2023-03-04T07:04:48.189Z,89.60
2023-03-04T07:07:14.766Z,88.92
2023-03-04T07:09:41.400Z,87.88
2023-03-04T07:12:08.074Z,88.20
2023-03-04T07:14:34.678Z,88.49
2023-03-04T07:17:01.369Z,88.55
2023-03-04T07:19:28.016Z,88.49
2023-03-04T07:21:54.567Z,89.36
2023-03-04T07:24:21.208Z,89.36
2023-03-04T07:26:47.757Z,88.47
2023-03-04T07:29:14.423Z,88.05
2023-03-04T07:31:41.110Z,86.49
2023-03-04T07:34:15.154Z,86.98
2023-03-04T07:36:42.356Z,87.28
2023-03-04T07:39:11.422Z,86.59
2023-03-04T07:41:38.084Z,86.44
2023-03-04T07:44:06.697Z,86.79
2023-03-04T07:46:33.911Z,85.79
2023-03-04T07:49:00.670Z,86.30
2023-03-04T07:51:27.933Z,86.19
2023-03-04T07:53:57.937Z,85.60
2023-03-04T07:56:27.114Z,85.75
2023-03-04T07:58:54.008Z,86.53
2023-03-04T08:01:23.918Z,85.48
2023-03-04T08:03:50.673Z,84.88
2023-03-04T08:06:19.096Z,84.80
2023-03-04T08:08:46.288Z,83.66
2023-03-04T08:11:15.749Z,83.40
2023-03-04T08:13:42.622Z,83.26
2023-03-04T08:16:12.636Z,82.31
2023-03-04T08:18:40.537Z,82.33
2023-03-04T08:21:10.341Z,81.99
2023-03-04T08:23:37.170Z,81.95
2023-03-04T08:26:09.646Z,83.05
2023-03-04T08:28:36.522Z,82.74
2023-03-04T08:31:03.752Z,82.47
2023-03-04T08:33:31.381Z,81.72
2023-03-04T08:35:58.103Z,81.86
2023-03-04T08:38:24.775Z,82.36
2023-03-04T08:40:57.698Z,81.99
2023-03-04T08:43:25.863Z,81.95
2023-03-04T08:45:54.331Z,81.76
2023-03-04T08:48:21.850Z,81.88
2023-03-04T08:50:49.302Z,81.37
2023-03-04T08:53:16.681Z,81.29
2023-03-04T08:55:43.529Z,81.20
2023-03-04T08:58:10.922Z,81.89
2023-03-04T09:00:42.957Z,81.17
2023-03-04T09:03:12.279Z,81.62
2023-03-04T09:05:39.175Z,81.33
2023-03-04T09:08:06.214Z,81.29
2023-03-04T09:10:32.900Z,81.84
2023-03-04T09:12:59.544Z,81.79
2023-03-04T09:15:26.164Z,82.42
2023-03-04T09:17:53.027Z,81.95
2023-03-04T09:20:21.112Z,81.27
2023-03-04T09:22:47.678Z,81.51
2023-03-04T09:25:15.490Z,80.87
2023-03-04T09:27:42.134Z,81.05
2023-03-04T09:30:10.223Z,80.32
2023-03-04T09:32:36.974Z,80.53
2023-03-04T09:35:04.009Z,80.67
2023-03-04T09:37:30.662Z,80.38
2023-03-04T09:39:57.274Z,80.38
2023-03-04T09:42:51.963Z,79.81
2023-03-04T09:45:24.940Z,79.90
2023-03-04T09:47:54.252Z,79.80
2023-03-04T09:50:21.985Z,79.65
2023-03-04T09:53:12.875Z,80.10
2023-03-04T09:55:42.259Z,80.13
2023-03-04T09:58:36.935Z,80.03
2023-03-04T10:01:41.676Z,80.13
2023-03-04T10:04:41.428Z,79.67
2023-03-04T10:07:20.425Z,80.89
2023-03-04T10:10:04.965Z,80.12
2023-03-04T10:12:36.684Z,80.85
2023-03-04T10:15:26.956Z,79.99
2023-03-04T10:18:02.734Z,80.22
2023-03-04T10:20:44.157Z,80.06
2023-03-04T10:23:18.185Z,79.35
2023-03-04T10:25:47.067Z,79.87
2023-03-04T10:28:20.205Z,80.68
2023-03-04T10:31:05.002Z,79.80
2023-03-04T10:33:37.231Z,79.37
2023-03-04T10:36:06.933Z,79.79
2023-03-04T10:38:40.174Z,79.54
2023-03-04T10:41:20.428Z,81.02
2023-03-04T10:44:00.484Z,80.44
2023-03-04T10:46:27.278Z,78.87
2023-03-04T10:48:55.054Z,78.69
2023-03-04T10:51:23.263Z,79.31
2023-03-04T10:54:10.182Z,79.85
2023-03-04T10:56:46.366Z,80.80
2023-03-04T10:59:33.920Z,80.73
2023-03-04T11:02:13.379Z,80.13
2023-03-04T11:04:40.215Z,80.17
2023-03-04T11:07:11.028Z,80.17
2023-03-04T11:09:40.162Z,79.98
2023-03-04T11:12:15.377Z,79.19
2023-03-04T11:14:49.128Z,78.58
2023-03-04T11:17:45.541Z,79.35
2023-03-04T11:20:38.026Z,78.35
2023-03-04T11:23:11.319Z,79.12
2023-03-04T11:25:44.028Z,79.23
2023-03-04T11:28:26.712Z,79.91
2023-03-04T11:31:10.147Z,78.57
2023-03-04T11:33:45.539Z,79.05
2023-03-04T11:36:12.137Z,78.53
2023-03-04T11:38:46.892Z,79.26
2023-03-04T11:41:20.535Z,78.65
2023-03-04T11:43:47.922Z,78.02
2023-03-04T11:46:50.845Z,75.89
2023-03-04T11:49:58.927Z,76.64
2023-03-04T11:52:40.016Z,75.57
2023-03-04T11:55:09.464Z,73.66
2023-03-04T11:57:47.819Z,72.14
2023-03-04T12:00:36.026Z,71.93
2023-03-04T12:03:44.383Z,70.67
2023-03-04T12:06:22.824Z,71.11
2023-03-04T12:09:17.295Z,70.44
2023-03-04T12:11:50.182Z,71.36
2023-03-04T12:14:25.538Z,71.67
2023-03-04T12:17:20.359Z,72.33
2023-03-04T12:20:08.744Z,72.69
2023-03-04T12:22:51.444Z,73.51
2023-03-04T12:25:33.764Z,74.14
2023-03-04T12:28:22.976Z,74.20
2023-03-04T12:31:07.786Z,74.72
2023-03-04T12:33:51.375Z,75.06
2023-03-04T12:36:56.604Z,74.49
2023-03-04T12:39:37.981Z,74.88
2023-03-04T12:42:17.192Z,74.89
2023-03-04T12:45:07.273Z,74.14
2023-03-04T12:48:15.053Z,74.09
2023-03-04T12:51:04.921Z,74.15
2023-03-04T12:54:23.954Z,73.68
2023-03-04T12:57:00.910Z,73.30
2023-03-04T12:59:34.303Z,74.46
2023-03-04T13:02:10.069Z,72.78
2023-03-04T13:05:14.149Z,72.40
2023-03-04T13:08:19.906Z,73.01
2023-03-04T13:10:46.566Z,73.32
2023-03-04T13:13:42.473Z,73.20
2023-03-04T13:16:11.964Z,72.76
2023-03-04T13:18:39.557Z,72.78
2023-03-04T13:21:12.252Z,72.99
2023-03-04T13:23:39.658Z,72.75
2023-03-04T13:26:10.241Z,72.80
2023-03-04T13:28:37.417Z,73.02
2023-03-04T13:31:09.754Z,73.61
2023-03-04T13:33:36.350Z,73.27
2023-03-04T13:36:25.608Z,73.21
2023-03-04T13:39:17.006Z,74.05
2023-03-04T13:41:49.922Z,73.03
2023-03-04T13:44:51.768Z,74.08
2023-03-04T13:47:21.422Z,73.18
2023-03-04T13:49:48.416Z,73.42
2023-03-04T13:52:44.356Z,73.56
2023-03-04T13:55:33.274Z,73.80
2023-03-04T13:58:00.616Z,73.31
2023-03-04T14:00:28.776Z,73.38
2023-03-04T14:02:55.586Z,73.14
2023-03-04T14:05:22.222Z,73.16
2023-03-04T14:07:48.923Z,73.39
2023-03-04T14:10:24.802Z,73.06
2023-03-04T14:12:57.647Z,73.70
2023-03-04T14:15:29.364Z,74.14
2023-03-04T14:18:05.299Z,73.64
2023-03-04T14:20:37.504Z,73.85
2023-03-04T14:23:23.563Z,73.59
2023-03-04T14:25:50.367Z,73.90
2023-03-04T14:28:20.803Z,74.15
2023-03-04T14:31:01.917Z,74.03
2023-03-04T14:33:33.598Z,74.29
2023-03-04T14:36:04.697Z,74.25
2023-03-04T14:38:38.600Z,75.18
2023-03-04T14:41:19.347Z,75.10
2023-03-04T14:44:08.138Z,74.29
2023-03-04T14:46:41.157Z,75.84
2023-03-04T14:49:17.204Z,75.85
2023-03-04T14:51:53.543Z,75.59
2023-03-04T14:54:34.228Z,75.75
2023-03-04T14:57:27.535Z,76.55
2023-03-04T14:59:55.603Z,77.29
2023-03-04T15:02:38.937Z,77.43
2023-03-04T15:05:25.450Z,77.41
2023-03-04T15:07:59.536Z,77.40
2023-03-04T15:10:30.158Z,77.66
2023-03-04T15:13:03.355Z,77.30
2023-03-04T15:15:39.807Z,77.14
2023-03-04T15:18:28.439Z,77.53
2023-03-04T15:21:00.725Z,77.37
2023-03-04T15:23:30.274Z,77.82
2023-03-04T15:26:02.096Z,77.64
2023-03-04T15:28:37.119Z,77.84
2023-03-04T15:31:14.797Z,77.36
2023-03-04T15:33:41.474Z,78.13
2023-03-04T15:36:14.139Z,77.82
2023-03-04T15:38:43.675Z,78.12
2023-03-04T15:41:12.348Z,78.07
2023-03-04T15:43:39.380Z,78.91
2023-03-04T15:46:06.665Z,78.62
2023-03-04T15:48:33.417Z,79.10
2023-03-04T15:51:02.317Z,78.94
2023-03-04T15:53:36.588Z,79.15
2023-03-04T15:56:08.137Z,78.45
2023-03-04T15:58:35.432Z,79.80
2023-03-04T16:01:02.649Z,79.49
2023-03-04T16:03:29.439Z,79.77
2023-03-04T16:05:57.176Z,79.53
2023-03-04T16:08:27.386Z,79.36
2023-03-04T16:10:54.820Z,79.83
2023-03-04T16:13:23.883Z,79.73
2023-03-04T16:15:50.883Z,79.90
2023-03-04T16:18:18.095Z,80.52
2023-03-04T16:20:47.681Z,80.17
2023-03-04T16:23:18.762Z,80.72
2023-03-04T16:25:47.137Z,80.63
2023-03-04T16:28:14.070Z,81.33
2023-03-04T16:30:41.690Z,81.09
2023-03-04T16:33:08.970Z,81.52
2023-03-04T16:35:37.732Z,81.01
2023-03-04T16:38:07.288Z,80.94
2023-03-04T16:40:33.953Z,80.98
2023-03-04T16:43:00.537Z,81.07
2023-03-04T16:45:30.262Z,81.01
2023-03-04T16:47:57.216Z,81.78
2023-03-04T16:50:27.380Z,82.32
2023-03-04T16:52:55.710Z,81.69
2023-03-04T16:55:28.205Z,82.11
2023-03-04T16:57:56.155Z,82.24
2023-03-04T17:00:24.059Z,82.35
2023-03-04T17:03:08.451Z,81.83
2023-03-04T17:05:35.089Z,82.66
2023-03-04T17:08:01.694Z,82.49
2023-03-04T17:10:28.364Z,83.56
2023-03-04T17:12:54.997Z,83.48
2023-03-04T17:15:21.682Z,83.49
2023-03-04T17:17:48.442Z,83.85
2023-03-04T17:20:17.234Z,83.83
2023-03-04T17:22:44.478Z,83.20
2023-03-04T17:25:12.457Z,84.04
2023-03-04T17:27:39.358Z,83.77
2023-03-04T17:30:08.017Z,84.51
2023-03-04T17:32:35.677Z,83.92
2023-03-04T17:35:03.333Z,83.63
2023-03-04T17:37:29.978Z,84.38
2023-03-04T17:39:56.555Z,83.92
2023-03-04T17:42:23.144Z,84.84
2023-03-04T17:44:49.823Z,84.87
2023-03-04T17:47:17.207Z,84.65
2023-03-04T17:49:43.830Z,84.43
2023-03-04T17:52:11.186Z,84.59
2023-03-04T17:54:38.054Z,84.55
2023-03-04T17:57:04.709Z,84.59
2023-03-04T17:59:31.488Z,84.81
2023-03-04T18:01:58.197Z,84.76
2023-03-04T18:04:24.878Z,85.46
2023-03-04T18:06:51.457Z,85.32
2023-03-04T18:09:18.066Z,85.26
2023-03-04T18:11:44.906Z,85.60
2023-03-04T18:14:12.760Z,84.89
2023-03-04T18:16:39.879Z,85.52
2023-03-04T18:19:06.481Z,86.15
2023-03-04T18:21:33.190Z,85.52
2023-03-04T18:24:00.034Z,85.40
2023-03-04T18:26:27.724Z,86.11
2023-03-04T18:28:55.422Z,85.31
2023-03-04T18:31:24.743Z,85.32
2023-03-04T18:33:51.722Z,86.09
2023-03-04T18:36:18.397Z,85.54
2023-03-04T18:38:45.048Z,84.92
2023-03-04T18:41:13.670Z,85.24
2023-03-04T18:43:40.765Z,84.88
2023-03-04T18:46:16.523Z,85.46
2023-03-04T18:48:49.657Z,85.13
2023-03-04T18:51:16.578Z,85.08
2023-03-04T18:53:43.148Z,85.51
2023-03-04T18:56:14.243Z,85.73
2023-03-04T18:58:44.247Z,86.20
2023-03-04T19:01:13.911Z,85.92
2023-03-04T19:03:41.791Z,85.58
2023-03-04T19:06:09.103Z,86.09
2023-03-04T19:08:35.891Z,86.28
2023-03-04T19:11:02.528Z,86.70
2023-03-04T19:13:30.705Z,88.86
2023-03-04T19:15:57.340Z,87.78
2023-03-04T19:18:24.782Z,88.81
2023-03-04T19:20:51.456Z,89.01
2023-03-04T19:23:18.144Z,90.39
2023-03-04T19:25:45.031Z,90.05
2023-03-04T19:28:12.129Z,90.91
2023-03-04T19:30:40.125Z,92.21
2023-03-04T19:33:07.173Z,91.80
2023-03-04T19:35:34.181Z,93.38
2023-03-04T19:38:01.070Z,93.53
2023-03-04T19:40:28.410Z,93.50
2023-03-04T19:42:56.680Z,94.58
2023-03-04T19:45:24.854Z,93.52
2023-03-04T19:47:51.951Z,94.49
2023-03-04T19:50:19.242Z,96.84
2023-03-04T19:52:45.964Z,95.56
2023-03-04T19:55:15.075Z,94.52
2023-03-04T19:57:44.824Z,95.89
2023-03-04T20:00:12.679Z,96.48
2023-03-04T20:02:39.991Z,97.21
2023-03-04T20:05:07.221Z,97.20
2023-03-04T20:07:33.833Z,97.79
2023-03-04T20:10:00.446Z,99.17
2023-03-04T20:12:27.313Z,97.79
2023-03-04T20:14:54.010Z,97.19
2023-03-04T20:17:20.750Z,98.25
2023-03-04T20:19:47.482Z,97.30
2023-03-04T20:22:14.089Z,97.95
2023-03-04T20:24:40.689Z,99.94
2023-03-04T20:27:07.296Z,100.00
2023-03-04T20:29:33.904Z,100.00
2023-03-04T20:32:01.431Z,100.00
2023-03-04T20:34:28.096Z,100.00
2023-03-04T20:36:54.692Z,100.00
2023-03-04T20:39:29.286Z,100.00
2023-03-04T20:41:59.528Z,100.00
2023-03-04T20:44:27.283Z,100.00
2023-03-04T20:46:53.896Z,100.00
2023-03-04T20:49:25.548Z,100.00
2023-03-04T20:52:03.346Z,100.00
2023-03-04T20:54:30.748Z,100.00
2023-03-04T20:56:57.567Z,100.00
2023-03-04T20:59:24.420Z,100.00
2023-03-04T21:01:52.400Z,100.00
2023-03-04T21:04:20.349Z,100.00
2023-03-04T21:06:51.683Z,100.00
2023-03-04T21:09:20.786Z,100.00
2023-03-04T21:11:48.734Z,100.00
2023-03-04T21:14:23.072Z,100.00
2023-03-04T21:16:53.416Z,100.00
2023-03-04T21:19:22.833Z,100.00
2023-03-04T21:21:50.748Z,100.00
2023-03-04T21:24:20.725Z,100.00
2023-03-04T21:26:48.053Z,100.00
2023-03-04T21:29:16.569Z,100.00
2023-03-04T21:31:53.422Z,100.00
2023-03-04T21:34:28.241Z,100.00
2023-03-04T21:36:54.837Z,100.00
2023-03-04T21:39:24.133Z,100.00
2023-03-04T21:41:51.353Z,100.00
2023-03-04T21:44:28.015Z,100.00
2023-03-04T21:46:59.937Z,100.00
2023-03-04T21:49:26.772Z,100.00
2023-03-04T21:51:53.506Z,100.00
2023-03-04T21:54:20.316Z,100.00
2023-03-04T21:56:46.947Z,100.00
2023-03-04T21:59:14.634Z,100.00
2023-03-04T22:01:41.743Z,100.00
2023-03-04T22:04:08.948Z,100.00
2023-03-04T22:06:35.799Z,100.00
2023-03-04T22:09:04.699Z,100.00
2023-03-04T22:11:32.220Z,100.00
2023-03-04T22:14:01.940Z,100.00
2023-03-04T22:16:29.117Z,100.00
2023-03-04T22:18:55.863Z,100.00
2023-03-04T22:21:23.489Z,100.00
2023-03-04T22:23:50.325Z,100.00
2023-03-04T22:26:21.055Z,100.00
2023-03-04T22:28:47.801Z,100.00
2023-03-04T22:31:16.158Z,100.00
2023-03-04T22:33:44.411Z,100.00
2023-03-04T22:36:12.721Z,100.00
2023-03-04T22:38:40.445Z,100.00
2023-03-04T22:41:14.483Z,100.00
2023-03-04T22:43:41.705Z,100.00
2023-03-04T22:46:24.639Z,100.00
2023-03-04T22:48:56.311Z,100.00
2023-03-04T22:51:23.411Z,100.00
2023-03-04T22:53:51.937Z,100.00
2023-03-04T22:56:19.773Z,100.00
2023-03-04T22:58:46.972Z,100.00
2023-03-04T23:01:16.734Z,100.00
2023-03-04T23:03:45.661Z,100.00
2023-03-04T23:06:18.197Z,100.00
2023-03-04T23:08:46.972Z,100.00
2023-03-04T23:11:16.881Z,100.00
2023-03-04T23:13:44.631Z,100.00
2023-03-04T23:16:13.773Z,100.00
2023-03-04T23:18:43.695Z,100.00
2023-03-04T23:21:13.939Z,99.70
2023-03-04T23:23:41.652Z,100.00
2023-03-04T23:26:21.174Z,99.54
2023-03-04T23:28:48.453Z,98.56
2023-03-04T23:31:15.870Z,97.68
2023-03-04T23:33:45.076Z,94.63
2023-03-04T23:36:15.225Z,94.72
2023-03-04T23:38:44.199Z,95.16
2023-03-04T23:41:13.950Z,94.87
2023-03-04T23:43:40.976Z,92.80
2023-03-04T23:46:09.366Z,91.83
2023-03-04T23:48:36.770Z,91.85
2023-03-04T23:51:03.941Z,90.32
2023-03-04T23:53:34.441Z,87.88
2023-03-04T23:56:01.093Z,88.26
2023-03-04T23:58:28.429Z,89.31
